createdAt,value
2022-10-12T00:02:19.944Z,8.60
2022-10-12T00:04:46.810Z,8.50
2022-10-12T00:07:14.663Z,8.50
2022-10-12T00:09:41.618Z,8.50
2022-10-12T00:12:08.477Z,8.50
2022-10-12T00:14:38.357Z,8.50
2022-10-12T00:17:05.104Z,8.50
2022-10-12T00:19:32.899Z,8.40
2022-10-12T00:21:59.727Z,8.40
2022-10-12T00:24:26.554Z,8.40
2022-10-12T00:26:53.414Z,8.30
2022-10-12T00:29:20.362Z,8.30
2022-10-12T00:31:47.158Z,8.20
2022-10-12T00:34:13.949Z,8.20
2022-10-12T00:36:40.764Z,8.20
2022-10-12T00:39:08.570Z,8.20
2022-10-12T00:41:40.846Z,8.20
2022-10-12T00:44:34.104Z,8.10
2022-10-12T00:47:03.054Z,8.10
2022-10-12T00:49:29.855Z,8.10
2022-10-12T00:52:01.031Z,8.10
2022-10-12T00:54:32.256Z,8.10
2022-10-12T00:56:59.018Z,8.00
2022-10-12T00:59:28.560Z,8.00
2022-10-12T01:01:55.440Z,8.00
2022-10-12T01:04:22.201Z,8.00
2022-10-12T01:06:48.960Z,8.00
2022-10-12T01:09:15.795Z,8.00
2022-10-12T01:11:42.540Z,8.00
2022-10-12T01:14:09.335Z,8.00
2022-10-12T01:16:43.955Z,8.00
2022-10-12T01:19:25.473Z,8.00
2022-10-12T01:21:57.186Z,8.00
2022-10-12T01:24:47.222Z,8.00
2022-10-12T01:27:35.237Z,8.00
2022-10-12T01:30:11.887Z,7.90
2022-10-12T01:33:07.646Z,8.00
2022-10-12T01:35:49.430Z,8.00
2022-10-12T01:38:34.386Z,8.10
2022-10-12T01:41:32.636Z,8.00
2022-10-12T01:43:59.502Z,8.10
2022-10-12T01:46:26.267Z,8.10
2022-10-12T01:48:57.998Z,8.20
2022-10-12T01:51:34.032Z,8.20
2022-10-12T01:54:26.333Z,8.10
2022-10-12T01:57:19.042Z,8.10
2022-10-12T01:59:55.965Z,8.10
2022-10-12T02:02:47.975Z,8.10
2022-10-12T02:05:20.530Z,8.20
2022-10-12T02:07:53.346Z,8.20
2022-10-12T02:10:30.939Z,8.20
2022-10-12T02:12:58.350Z,8.10
2022-10-12T02:15:25.840Z,8.10
2022-10-12T02:17:52.745Z,8.10
2022-10-12T02:20:22.172Z,8.20
2022-10-12T02:22:49.664Z,8.10
2022-10-12T02:25:19.017Z,8.10
2022-10-12T02:27:52.094Z,8.10
2022-10-12T02:30:21.224Z,8.10
2022-10-12T02:33:03.668Z,8.10
2022-10-12T02:35:39.925Z,8.10
2022-10-12T02:38:22.226Z,8.00
2022-10-12T02:40:52.363Z,8.00
2022-10-12T02:43:25.521Z,8.00
2022-10-12T02:45:53.271Z,8.00
2022-10-12T02:48:23.241Z,8.00
2022-10-12T02:50:51.893Z,8.00
2022-10-12T02:53:18.704Z,7.90
2022-10-12T02:55:52.753Z,7.90
2022-10-12T02:58:19.726Z,7.90
2022-10-12T03:00:46.866Z,7.90
2022-10-12T03:03:13.785Z,7.90
2022-10-12T03:05:40.536Z,7.80
2022-10-12T03:08:07.293Z,7.80
2022-10-12T03:10:34.118Z,7.80
2022-10-12T03:13:00.878Z,7.70
2022-10-12T03:15:27.653Z,7.70
2022-10-12T03:17:54.440Z,7.70
2022-10-12T03:20:21.223Z,7.70
2022-10-12T03:22:48.070Z,7.70
2022-10-12T03:25:14.904Z,7.60
2022-10-12T03:27:41.758Z,7.60
2022-10-12T03:30:09.422Z,7.60
2022-10-12T03:32:36.177Z,7.60
2022-10-12T03:35:03.129Z,7.60
2022-10-12T03:37:29.915Z,7.50
2022-10-12T03:39:56.725Z,7.50
2022-10-12T03:42:23.538Z,7.50
2022-10-12T03:44:50.300Z,7.50
2022-10-12T03:47:17.141Z,7.50
2022-10-12T03:49:43.907Z,7.40
2022-10-12T03:52:10.683Z,7.40
2022-10-12T03:54:37.504Z,7.40
2022-10-12T03:57:04.254Z,7.40
2022-10-12T03:59:31.031Z,7.40
2022-10-12T04:01:57.924Z,7.40
2022-10-12T04:04:24.687Z,7.40
2022-10-12T04:06:51.434Z,7.40
2022-10-12T04:09:18.238Z,7.30
2022-10-12T04:11:44.985Z,7.30
2022-10-12T04:14:11.745Z,7.30
2022-10-12T04:16:38.542Z,7.30
2022-10-12T04:19:05.295Z,7.20
2022-10-12T04:21:32.136Z,7.20
2022-10-12T04:23:58.971Z,7.20
2022-10-12T04:26:25.807Z,7.20
2022-10-12T04:28:52.590Z,7.20
2022-10-12T04:31:19.389Z,7.10
2022-10-12T04:33:46.150Z,7.10
2022-10-12T04:36:12.953Z,7.10
2022-10-12T04:38:39.738Z,7.00
2022-10-12T04:41:06.505Z,7.10
2022-10-12T04:43:33.301Z,7.00
2022-10-12T04:46:00.161Z,7.00
2022-10-12T04:48:27.232Z,7.00
2022-10-12T04:50:54.083Z,7.00
2022-10-12T04:53:20.844Z,7.00
2022-10-12T04:55:47.616Z,7.00
2022-10-12T04:58:14.415Z,6.90
2022-10-12T05:00:41.265Z,6.90
2022-10-12T05:03:08.034Z,6.90
2022-10-12T05:05:36.158Z,6.90
2022-10-12T05:08:03.796Z,6.90
2022-10-12T05:10:30.636Z,6.90
2022-10-12T05:12:57.470Z,6.80
2022-10-12T05:15:24.324Z,6.80
2022-10-12T05:17:51.234Z,6.70
2022-10-12T05:20:18.094Z,6.70
2022-10-12T05:22:44.893Z,6.70
2022-10-12T05:25:11.659Z,6.70
2022-10-12T05:27:38.784Z,6.70
2022-10-12T05:30:06.740Z,6.70
2022-10-12T05:32:33.557Z,6.70
2022-10-12T05:35:00.399Z,6.60
2022-10-12T05:37:27.181Z,6.60
2022-10-12T05:39:53.947Z,6.60
2022-10-12T05:42:20.918Z,6.60
2022-10-12T05:44:47.699Z,6.60
2022-10-12T05:47:14.547Z,6.60
2022-10-12T05:49:41.311Z,6.50
2022-10-12T05:52:08.169Z,6.50
2022-10-12T05:54:34.925Z,6.50
2022-10-12T05:57:01.790Z,6.50
2022-10-12T05:59:28.638Z,6.60
2022-10-12T06:01:55.450Z,6.50
2022-10-12T06:04:22.371Z,6.50
2022-10-12T06:06:49.129Z,6.50
2022-10-12T06:09:16.183Z,6.50
2022-10-12T06:11:43.147Z,6.50
2022-10-12T06:14:09.922Z,6.50
2022-10-12T06:16:36.733Z,6.50
2022-10-12T06:19:03.714Z,6.50
2022-10-12T06:21:34.611Z,6.60
2022-10-12T06:24:01.938Z,6.60
2022-10-12T06:26:28.819Z,6.60
2022-10-12T06:29:00.773Z,6.70
2022-10-12T06:31:28.757Z,6.70
2022-10-12T06:33:55.673Z,6.80
2022-10-12T06:36:23.646Z,6.90
2022-10-12T06:38:50.514Z,6.90
2022-10-12T06:41:17.289Z,7.00
2022-10-12T06:43:44.089Z,7.00
2022-10-12T06:46:10.964Z,7.10
2022-10-12T06:48:38.053Z,7.20
2022-10-12T06:51:05.011Z,7.30
2022-10-12T06:53:33.021Z,7.40
2022-10-12T06:56:00.003Z,7.40
2022-10-12T06:58:26.988Z,7.40
2022-10-12T07:00:53.848Z,7.40
2022-10-12T07:03:21.290Z,7.40
2022-10-12T07:05:48.144Z,7.50
2022-10-12T07:08:14.981Z,7.50
2022-10-12T07:10:41.740Z,7.50
2022-10-12T07:13:08.523Z,7.60
2022-10-12T07:15:35.373Z,7.60
2022-10-12T07:18:02.151Z,7.70
2022-10-12T07:20:28.943Z,7.80
2022-10-12T07:22:55.738Z,7.90
2022-10-12T07:25:22.561Z,7.80
2022-10-12T07:27:49.581Z,7.90
2022-10-12T07:30:16.500Z,7.90
2022-10-12T07:32:44.597Z,8.00
2022-10-12T07:35:11.470Z,8.10
2022-10-12T07:37:38.750Z,8.10
2022-10-12T07:40:06.261Z,8.20
2022-10-12T07:42:33.150Z,8.30
2022-10-12T07:44:59.999Z,8.30
2022-10-12T07:47:26.845Z,8.40
2022-10-12T07:49:53.646Z,8.40
2022-10-12T07:52:20.442Z,8.50
2022-10-12T07:54:47.234Z,8.70
2022-10-12T07:57:13.983Z,8.90
2022-10-12T07:59:40.822Z,9.00
2022-10-12T08:02:07.699Z,9.10
2022-10-12T08:04:34.597Z,9.30
2022-10-12T08:07:01.431Z,9.40
2022-10-12T08:09:28.259Z,9.50
2022-10-12T08:11:56.323Z,9.60
2022-10-12T08:14:23.278Z,9.60
2022-10-12T08:16:50.088Z,9.70
2022-10-12T08:19:16.895Z,9.80
2022-10-12T08:21:43.888Z,10.10
2022-10-12T08:24:11.225Z,10.60
2022-10-12T08:26:38.135Z,11.20
2022-10-12T08:29:05.461Z,11.70
2022-10-12T08:31:32.261Z,12.30
2022-10-12T08:33:59.123Z,12.60
2022-10-12T08:36:26.069Z,12.60
2022-10-12T08:38:54.979Z,12.50
2022-10-12T08:41:40.624Z,12.40
2022-10-12T08:44:25.833Z,12.50
2022-10-12T08:46:58.001Z,12.50
2022-10-12T08:49:25.457Z,12.40
2022-10-12T08:51:53.764Z,12.30
2022-10-12T08:54:22.485Z,12.20
2022-10-12T08:56:49.372Z,12.10
2022-10-12T08:59:17.753Z,12.30
2022-10-12T09:01:50.483Z,12.40
2022-10-12T09:04:35.802Z,12.50
2022-10-12T09:07:31.535Z,12.50
2022-10-12T09:10:31.835Z,12.70
2022-10-12T09:13:39.849Z,12.60
2022-10-12T09:16:12.256Z,12.60
2022-10-12T09:18:43.498Z,12.60
2022-10-12T09:21:19.316Z,12.70
2022-10-12T09:23:46.196Z,12.60
2022-10-12T09:26:16.510Z,12.50
2022-10-12T09:28:57.284Z,12.40
2022-10-12T09:31:53.331Z,12.50
2022-10-12T09:34:20.260Z,12.40
2022-10-12T09:36:47.043Z,12.40
2022-10-12T09:39:23.478Z,12.50
2022-10-12T09:41:54.794Z,12.60
2022-10-12T09:44:36.650Z,12.60
2022-10-12T09:47:04.874Z,12.60
2022-10-12T09:49:45.630Z,12.70
2022-10-12T09:52:13.803Z,12.70
2022-10-12T09:54:42.408Z,12.80
2022-10-12T09:57:09.219Z,12.90
2022-10-12T09:59:40.185Z,13.20
2022-10-12T10:02:17.002Z,13.40
2022-10-12T10:04:44.701Z,13.80
2022-10-12T10:07:29.798Z,14.10
2022-10-12T10:10:18.193Z,14.20
2022-10-12T10:12:52.218Z,14.40
2022-10-12T10:15:35.674Z,14.40
2022-10-12T10:18:04.242Z,14.40
2022-10-12T10:20:32.522Z,14.40
2022-10-12T10:22:59.345Z,14.70
2022-10-12T10:25:26.252Z,15.00
2022-10-12T10:28:35.822Z,15.20
2022-10-12T10:31:07.625Z,15.30
2022-10-12T10:33:35.157Z,15.40
2022-10-12T10:36:24.190Z,15.40
2022-10-12T10:38:54.503Z,15.50
2022-10-12T10:41:21.685Z,15.40
2022-10-12T10:43:48.966Z,15.20
2022-10-12T10:46:19.222Z,15.20
2022-10-12T10:48:51.398Z,15.30
2022-10-12T10:51:18.187Z,15.30
2022-10-12T10:53:47.208Z,15.30
2022-10-12T10:56:18.449Z,15.30
2022-10-12T10:58:50.123Z,15.20
2022-10-12T11:01:25.444Z,15.30
2022-10-12T11:04:03.338Z,15.20
2022-10-12T11:06:39.873Z,15.20
2022-10-12T11:09:25.756Z,15.20
2022-10-12T11:12:04.353Z,15.30
2022-10-12T11:14:37.140Z,15.50
2022-10-12T11:17:05.667Z,15.70
2022-10-12T11:20:20.336Z,15.90
2022-10-12T11:23:04.690Z,16.00
2022-10-12T11:25:39.002Z,16.40
2022-10-12T11:28:06.786Z,16.60
2022-10-12T11:30:40.619Z,16.60
2022-10-12T11:33:12.059Z,16.70
2022-10-12T11:35:42.007Z,16.90
2022-10-12T11:38:30.559Z,17.20
2022-10-12T11:41:35.001Z,17.10
2022-10-12T11:44:25.352Z,17.30
2022-10-12T11:47:20.732Z,17.00
2022-10-12T11:49:59.480Z,16.90
2022-10-12T11:52:28.931Z,16.70
2022-10-12T11:55:24.337Z,16.60
2022-10-12T11:57:51.221Z,16.70
2022-10-12T12:00:24.102Z,16.70
2022-10-12T12:02:54.620Z,16.50
2022-10-12T12:05:21.430Z,16.40
2022-10-12T12:07:49.631Z,16.30
2022-10-12T12:10:25.885Z,16.20
2022-10-12T12:13:14.717Z,16.40
2022-10-12T12:16:01.910Z,16.60
2022-10-12T12:18:29.633Z,16.90
2022-10-12T12:21:08.852Z,16.90
2022-10-12T12:24:02.118Z,16.80
2022-10-12T12:26:29.184Z,16.70
2022-10-12T12:29:12.591Z,16.50
2022-10-12T12:31:39.430Z,16.40
2022-10-12T12:34:12.312Z,16.40
2022-10-12T12:36:46.693Z,16.50
2022-10-12T12:39:32.375Z,16.30
2022-10-12T12:42:09.140Z,16.60
2022-10-12T12:44:40.698Z,16.70
2022-10-12T12:47:26.473Z,16.70
2022-10-12T12:50:00.648Z,16.70
2022-10-12T12:52:39.040Z,16.80
2022-10-12T12:55:35.523Z,16.90
2022-10-12T12:58:19.602Z,17.00
2022-10-12T13:00:52.573Z,17.20
2022-10-12T13:03:31.465Z,17.10
2022-10-12T13:06:33.710Z,17.00
2022-10-12T13:09:15.984Z,16.80
2022-10-12T13:11:48.487Z,16.60
2022-10-12T13:14:43.062Z,16.60
2022-10-12T13:17:34.605Z,16.60
2022-10-12T13:20:19.776Z,16.50
2022-10-12T13:22:47.109Z,16.30
2022-10-12T13:25:26.387Z,16.30
2022-10-12T13:27:53.454Z,16.20
2022-10-12T13:30:48.155Z,16.10
2022-10-12T13:33:21.229Z,16.10
2022-10-12T13:35:54.215Z,16.20
2022-10-12T13:38:22.984Z,16.10
2022-10-12T13:40:54.139Z,16.10
2022-10-12T13:44:03.884Z,16.10
2022-10-12T13:46:45.222Z,16.10
2022-10-12T13:49:27.077Z,16.40
2022-10-12T13:51:54.887Z,16.50
2022-10-12T13:54:39.502Z,16.70
2022-10-12T13:57:19.448Z,16.90
2022-10-12T13:59:46.206Z,17.10
2022-10-12T14:02:30.078Z,17.00
2022-10-12T14:04:57.790Z,16.80
2022-10-12T14:07:33.250Z,16.90
2022-10-12T14:10:03.905Z,16.90
2022-10-12T14:12:32.427Z,16.80
2022-10-12T14:14:59.327Z,16.70
2022-10-12T14:17:26.169Z,16.70
2022-10-12T14:19:54.450Z,16.50
2022-10-12T14:22:28.880Z,16.30
2022-10-12T14:25:22.714Z,16.00
2022-10-12T14:27:56.517Z,15.80
2022-10-12T14:30:30.121Z,15.70
2022-10-12T14:33:29.757Z,15.70
2022-10-12T14:36:35.198Z,15.90
2022-10-12T14:39:13.281Z,16.10
2022-10-12T14:41:48.724Z,16.00
2022-10-12T14:44:17.701Z,16.00
2022-10-12T14:46:48.533Z,16.10
2022-10-12T14:49:25.991Z,16.10
2022-10-12T14:51:53.878Z,16.00
2022-10-12T14:54:20.981Z,16.00
2022-10-12T14:56:47.799Z,16.00
2022-10-12T14:59:14.587Z,16.10
2022-10-12T15:01:42.108Z,16.10
2022-10-12T15:04:13.030Z,16.20
2022-10-12T15:06:40.053Z,16.10
2022-10-12T15:09:06.830Z,16.10
2022-10-12T15:11:33.643Z,16.00
2022-10-12T15:14:00.451Z,15.80
2022-10-12T15:16:28.139Z,15.70
2022-10-12T15:18:54.926Z,15.60
2022-10-12T15:21:21.716Z,15.60
2022-10-12T15:23:48.519Z,15.60
2022-10-12T15:26:17.157Z,15.60
2022-10-12T15:28:44.258Z,15.70
2022-10-12T15:31:18.863Z,15.80
2022-10-12T15:33:45.923Z,15.70
2022-10-12T15:36:14.119Z,15.80
2022-10-12T15:38:40.936Z,15.80
2022-10-12T15:41:14.943Z,15.80
2022-10-12T15:43:42.198Z,15.80
2022-10-12T15:46:12.257Z,15.80
2022-10-12T15:48:40.442Z,15.80
2022-10-12T15:51:23.858Z,15.90
2022-10-12T15:53:51.462Z,15.90
2022-10-12T15:56:18.281Z,15.90
2022-10-12T15:58:45.119Z,15.80
2022-10-12T16:01:21.012Z,15.70
2022-10-12T16:03:48.061Z,15.70
2022-10-12T16:06:15.041Z,15.60
2022-10-12T16:08:41.951Z,15.60
2022-10-12T16:11:12.143Z,15.50
2022-10-12T16:13:45.435Z,15.60
2022-10-12T16:16:16.106Z,15.50
2022-10-12T16:18:42.987Z,15.50
2022-10-12T16:21:10.006Z,15.50
2022-10-12T16:23:37.046Z,15.50
2022-10-12T16:26:08.476Z,15.40
2022-10-12T16:28:35.575Z,15.30
2022-10-12T16:31:02.475Z,15.30
2022-10-12T16:33:29.328Z,15.30
2022-10-12T16:35:56.123Z,15.30
2022-10-12T16:38:22.894Z,15.20
2022-10-12T16:40:50.030Z,15.10
2022-10-12T16:43:17.019Z,15.10
2022-10-12T16:45:43.789Z,15.00
2022-10-12T16:48:10.583Z,14.90
2022-10-12T16:50:40.479Z,14.80
2022-10-12T16:53:07.630Z,14.70
2022-10-12T16:55:37.293Z,14.60
2022-10-12T16:58:04.129Z,14.60
2022-10-12T17:00:31.041Z,14.50
2022-10-12T17:02:57.958Z,14.40
2022-10-12T17:05:24.818Z,14.40
2022-10-12T17:07:51.578Z,14.30
2022-10-12T17:10:18.385Z,14.20
2022-10-12T17:12:45.203Z,14.10
2022-10-12T17:15:11.976Z,14.10
2022-10-12T17:17:38.736Z,14.00
2022-10-12T17:20:05.974Z,14.00
2022-10-12T17:22:32.759Z,14.00
2022-10-12T17:24:59.533Z,13.90
2022-10-12T17:27:29.955Z,13.90
2022-10-12T17:29:59.642Z,13.90
2022-10-12T17:32:27.477Z,13.90
2022-10-12T17:34:54.257Z,13.80
2022-10-12T17:37:22.141Z,13.80
2022-10-12T17:39:50.273Z,13.80
2022-10-12T17:42:17.858Z,13.80
2022-10-12T17:44:44.937Z,13.80
2022-10-12T17:47:11.718Z,13.80
2022-10-12T17:49:38.483Z,13.70
2022-10-12T17:52:05.449Z,13.70
2022-10-12T17:54:32.883Z,13.70
2022-10-12T17:56:59.704Z,13.70
2022-10-12T17:59:26.773Z,13.70
2022-10-12T18:01:53.528Z,13.60
2022-10-12T18:04:20.570Z,13.60
2022-10-12T18:06:47.334Z,13.60
2022-10-12T18:09:14.235Z,13.60
2022-10-12T18:11:41.142Z,13.50
2022-10-12T18:14:09.332Z,13.50
2022-10-12T18:16:36.922Z,13.50
2022-10-12T18:19:04.133Z,13.40
2022-10-12T18:21:31.647Z,13.40
2022-10-12T18:23:58.460Z,13.30
2022-10-12T18:26:26.471Z,13.30
2022-10-12T18:28:55.720Z,13.20
2022-10-12T18:31:24.099Z,13.20
2022-10-12T18:33:51.450Z,13.10
2022-10-12T18:36:18.460Z,13.00
2022-10-12T18:38:45.291Z,13.00
2022-10-12T18:41:15.479Z,12.90
2022-10-12T18:43:42.322Z,12.90
2022-10-12T18:46:13.857Z,12.80
2022-10-12T18:48:40.765Z,12.80
2022-10-12T18:51:08.859Z,12.80
2022-10-12T18:53:35.790Z,12.80
2022-10-12T18:56:04.135Z,12.70
2022-10-12T18:58:31.440Z,12.70
2022-10-12T19:00:58.381Z,12.70
2022-10-12T19:03:25.926Z,12.70
2022-10-12T19:05:55.982Z,12.70
2022-10-12T19:08:22.765Z,12.70
2022-10-12T19:10:49.582Z,12.70
2022-10-12T19:13:16.335Z,12.70
2022-10-12T19:15:43.138Z,12.80
2022-10-12T19:18:09.915Z,12.80
2022-10-12T19:20:36.924Z,12.80
2022-10-12T19:23:03.770Z,12.80
2022-10-12T19:25:30.584Z,12.80
2022-10-12T19:27:57.382Z,12.80
2022-10-12T19:30:24.146Z,12.90
2022-10-12T19:32:50.967Z,12.90
2022-10-12T19:35:17.735Z,12.80
2022-10-12T19:37:44.566Z,12.80
2022-10-12T19:40:13.869Z,12.80
2022-10-12T19:42:40.635Z,12.80
2022-10-12T19:45:07.963Z,12.80
2022-10-12T19:47:34.963Z,12.80
2022-10-12T19:50:01.825Z,12.90
2022-10-12T19:52:28.655Z,12.90
2022-10-12T19:54:55.418Z,12.90
2022-10-12T19:57:23.721Z,12.90
2022-10-12T19:59:51.063Z,12.90
2022-10-12T20:02:22.605Z,12.90
2022-10-12T20:04:54.140Z,12.90
2022-10-12T20:07:21.313Z,12.90
2022-10-12T20:09:48.497Z,12.90
2022-10-12T20:12:15.432Z,12.90
2022-10-12T20:14:42.569Z,12.90
2022-10-12T20:17:09.534Z,13.00
2022-10-12T20:19:37.119Z,13.00
2022-10-12T20:22:03.961Z,13.00
2022-10-12T20:24:30.766Z,13.00
2022-10-12T20:26:57.547Z,13.00
2022-10-12T20:29:24.383Z,13.00
2022-10-12T20:31:51.210Z,13.00
2022-10-12T20:34:17.998Z,13.00
2022-10-12T20:36:45.046Z,13.10
2022-10-12T20:39:11.798Z,13.10
2022-10-12T20:41:40.615Z,13.10
2022-10-12T20:44:07.696Z,13.10
2022-10-12T20:46:34.650Z,13.10
2022-10-12T20:49:02.221Z,13.10
2022-10-12T20:51:30.854Z,13.10
2022-10-12T20:54:00.412Z,13.10
2022-10-12T20:56:30.970Z,13.10
2022-10-12T20:58:58.035Z,13.10
2022-10-12T21:01:26.065Z,13.10
2022-10-12T21:03:55.753Z,13.00
2022-10-12T21:06:23.646Z,13.10
2022-10-12T21:08:54.655Z,13.10
2022-10-12T21:11:21.618Z,13.10
2022-10-12T21:13:48.466Z,13.10
2022-10-12T21:16:15.355Z,13.20
2022-10-12T21:18:42.423Z,13.20
2022-10-12T21:21:16.559Z,13.20
2022-10-12T21:23:44.471Z,13.30
2022-10-12T21:26:17.437Z,13.30
2022-10-12T21:28:44.489Z,13.30
2022-10-12T21:31:11.640Z,13.30
2022-10-12T21:33:38.900Z,13.40
2022-10-12T21:36:10.161Z,13.40
2022-10-12T21:38:36.958Z,13.40
2022-10-12T21:41:04.738Z,13.40
2022-10-12T21:43:31.659Z,13.40
2022-10-12T21:46:04.836Z,13.50
2022-10-12T21:48:32.210Z,13.50
2022-10-12T21:50:59.339Z,13.60
2022-10-12T21:53:26.090Z,13.60
2022-10-12T21:55:52.923Z,13.60
2022-10-12T21:58:19.811Z,13.60
2022-10-12T22:00:46.703Z,13.60
2022-10-12T22:03:13.983Z,13.60
2022-10-12T22:05:41.424Z,13.70
2022-10-12T22:08:08.465Z,13.70
2022-10-12T22:10:39.008Z,13.70
2022-10-12T22:13:06.515Z,13.70
2022-10-12T22:15:33.494Z,13.80
2022-10-12T22:18:00.308Z,13.80
2022-10-12T22:20:27.093Z,13.80
2022-10-12T22:22:53.905Z,13.80
2022-10-12T22:25:20.751Z,13.80
2022-10-12T22:27:47.517Z,13.80
2022-10-12T22:30:14.474Z,13.80
2022-10-12T22:32:41.922Z,13.80
2022-10-12T22:35:08.933Z,13.80
2022-10-12T22:37:35.830Z,13.90
2022-10-12T22:40:03.992Z,13.80
2022-10-12T22:42:30.783Z,13.90
2022-10-12T22:44:57.549Z,13.80
2022-10-12T22:47:25.766Z,13.80
2022-10-12T22:49:52.522Z,13.90
2022-10-12T22:52:19.659Z,13.90
2022-10-12T22:54:46.866Z,13.90
2022-10-12T22:57:13.978Z,13.90
2022-10-12T22:59:40.762Z,13.80
2022-10-12T23:02:07.575Z,13.90
2022-10-12T23:04:34.417Z,13.90
2022-10-12T23:07:01.252Z,13.90
2022-10-12T23:09:28.087Z,13.90
2022-10-12T23:11:54.938Z,14.00
2022-10-12T23:14:22.702Z,14.00
2022-10-12T23:16:49.456Z,14.00
2022-10-12T23:19:16.276Z,13.90
2022-10-12T23:21:43.331Z,13.90
2022-10-12T23:24:10.142Z,13.90
2022-10-12T23:26:36.949Z,14.00
2022-10-12T23:29:03.761Z,14.00
2022-10-12T23:31:30.710Z,14.00
2022-10-12T23:34:07.222Z,14.00
2022-10-12T23:36:34.027Z,13.90
2022-10-12T23:39:01.458Z,13.90
2022-10-12T23:41:28.262Z,13.90
2022-10-12T23:43:55.042Z,13.90
2022-10-12T23:46:21.910Z,13.90
2022-10-12T23:48:48.700Z,13.90
2022-10-12T23:51:15.471Z,13.90
2022-10-12T23:53:42.818Z,13.90
2022-10-12T23:56:09.865Z,13.90
2022-10-12T23:58:36.677Z,14.00
